sensor_id;sensor_type;location;lat;lon;timestamp;P1;durP1;ratioP1;P2;durP2;ratioP2
48791;SDS011;34587;48.816;9.420;2023-11-21T00:01:51;5.43;;;1.20;;
48791;SDS011;34587;48.816;9.420;2023-11-21T00:04:17;4.82;;;1.27;;
48791;SDS011;34587;48.816;9.420;2023-11-21T00:06:42;1.95;;;1.10;;
48791;SDS011;34587;48.816;9.420;2023-11-21T00:09:07;2.30;;;1.30;;
48791;SDS011;34587;48.816;9.420;2023-11-21T00:11:33;7.50;;;1.73;;
48791;SDS011;34587;48.816;9.420;2023-11-21T00:13:58;6.78;;;1.60;;
48791;SDS011;34587;48.816;9.420;2023-11-21T00:16:24;6.15;;;1.33;;
48791;SDS011;34587;48.816;9.420;2023-11-21T00:18:50;5.88;;;1.60;;
48791;SDS011;34587;48.816;9.420;2023-11-21T00:21:16;8.48;;;1.73;;
48791;SDS011;34587;48.816;9.420;2023-11-21T00:23:41;5.15;;;1.45;;
48791;SDS011;34587;48.816;9.420;2023-11-21T00:26:07;3.10;;;1.55;;
48791;SDS011;34587;48.816;9.420;2023-11-21T00:28:33;4.60;;;1.33;;
48791;SDS011;34587;48.816;9.420;2023-11-21T00:30:58;7.40;;;1.63;;
48791;SDS011;34587;48.816;9.420;2023-11-21T00:33:23;3.08;;;1.30;;
48791;SDS011;34587;48.816;9.420;2023-11-21T00:35:50;3.67;;;1.17;;
48791;SDS011;34587;48.816;9.420;2023-11-21T00:38:15;2.88;;;1.25;;
48791;SDS011;34587;48.816;9.420;2023-11-21T00:40:40;4.88;;;1.10;;
48791;SDS011;34587;48.816;9.420;2023-11-21T00:43:06;5.03;;;1.63;;
48791;SDS011;34587;48.816;9.420;2023-11-21T00:45:31;1.77;;;1.20;;
48791;SDS011;34587;48.816;9.420;2023-11-21T00:47:56;7.00;;;1.85;;
48791;SDS011;34587;48.816;9.420;2023-11-21T00:50:23;5.95;;;1.30;;
48791;SDS011;34587;48.816;9.420;2023-11-21T00:52:49;8.35;;;1.30;;
48791;SDS011;34587;48.816;9.420;2023-11-21T00:55:16;3.05;;;1.70;;
48791;SDS011;34587;48.816;9.420;2023-11-21T00:57:42;5.30;;;1.25;;
48791;SDS011;34587;48.816;9.420;2023-11-21T05:17:36;1.02;;;0.70;;
48791;SDS011;34587;48.816;9.420;2023-11-21T05:20:03;0.57;;;0.57;;
48791;SDS011;34587;48.816;9.420;2023-11-21T05:22:33;3.08;;;0.90;;
48791;SDS011;34587;48.816;9.420;2023-11-21T05:24:59;10.68;;;1.05;;
48791;SDS011;34587;48.816;9.420;2023-11-21T05:27:24;1.15;;;1.00;;
48791;SDS011;34587;48.816;9.420;2023-11-21T05:29:49;1.77;;;1.15;;
48791;SDS011;34587;48.816;9.420;2023-11-21T05:32:15;3.70;;;0.98;;
48791;SDS011;34587;48.816;9.420;2023-11-21T05:34:42;2.83;;;1.15;;
48791;SDS011;34587;48.816;9.420;2023-11-21T05:37:08;9.40;;;1.77;;
48791;SDS011;34587;48.816;9.420;2023-11-21T05:39:33;0.95;;;0.60;;
48791;SDS011;34587;48.816;9.420;2023-11-21T05:41:58;2.75;;;0.90;;
48791;SDS011;34587;48.816;9.420;2023-11-21T05:44:25;1.52;;;0.85;;
48791;SDS011;34587;48.816;9.420;2023-11-21T05:46:50;3.13;;;0.90;;
48791;SDS011;34587;48.816;9.420;2023-11-21T05:49:15;2.85;;;0.95;;
48791;SDS011;34587;48.816;9.420;2023-11-21T05:51:41;1.65;;;0.90;;
48791;SDS011;34587;48.816;9.420;2023-11-21T05:54:06;3.03;;;1.35;;
48791;SDS011;34587;48.816;9.420;2023-11-21T05:56:33;4.10;;;1.23;;
48791;SDS011;34587;48.816;9.420;2023-11-21T05:58:58;4.45;;;1.05;;
48791;SDS011;34587;48.816;9.420;2023-11-21T06:01:24;1.25;;;0.77;;
48791;SDS011;34587;48.816;9.420;2023-11-21T06:03:53;2.95;;;0.90;;
48791;SDS011;34587;48.816;9.420;2023-11-21T06:06:19;1.38;;;0.63;;
48791;SDS011;34587;48.816;9.420;2023-11-21T06:08:44;1.08;;;0.90;;
48791;SDS011;34587;48.816;9.420;2023-11-21T06:11:10;0.82;;;0.70;;
48791;SDS011;34587;48.816;9.420;2023-11-21T06:13:36;2.50;;;1.17;;
48791;SDS011;34587;48.816;9.420;2023-11-21T06:16:01;2.17;;;0.90;;
48791;SDS011;34587;48.816;9.420;2023-11-21T06:18:27;0.80;;;0.80;;
48791;SDS011;34587;48.816;9.420;2023-11-21T06:20:52;1.73;;;1.63;;
48791;SDS011;34587;48.816;9.420;2023-11-21T06:23:18;1.52;;;0.90;;
48791;SDS011;34587;48.816;9.420;2023-11-21T06:25:43;1.88;;;1.30;;
48791;SDS011;34587;48.816;9.420;2023-11-21T06:28:09;1.42;;;1.10;;
48791;SDS011;34587;48.816;9.420;2023-11-21T06:30:35;3.90;;;1.30;;
48791;SDS011;34587;48.816;9.420;2023-11-21T06:33:00;5.18;;;1.13;;
48791;SDS011;34587;48.816;9.420;2023-11-21T06:35:26;3.45;;;1.20;;
48791;SDS011;34587;48.816;9.420;2023-11-21T06:37:54;1.10;;;0.90;;
48791;SDS011;34587;48.816;9.420;2023-11-21T06:40:20;1.10;;;0.88;;
48791;SDS011;34587;48.816;9.420;2023-11-21T06:42:45;1.67;;;1.10;;
48791;SDS011;34587;48.816;9.420;2023-11-21T06:45:11;1.38;;;1.05;;
48791;SDS011;34587;48.816;9.420;2023-11-21T06:47:37;4.13;;;2.15;;
48791;SDS011;34587;48.816;9.420;2023-11-21T06:50:03;1.90;;;1.80;;
48791;SDS011;34587;48.816;9.420;2023-11-21T06:52:29;2.08;;;1.50;;
48791;SDS011;34587;48.816;9.420;2023-11-21T06:54:54;5.95;;;2.20;;
48791;SDS011;34587;48.816;9.420;2023-11-21T06:57:19;6.93;;;3.67;;
48791;SDS011;34587;48.816;9.420;2023-11-21T06:59:45;7.82;;;3.83;;
48791;SDS011;34587;48.816;9.420;2023-11-21T07:02:10;8.15;;;3.70;;
48791;SDS011;34587;48.816;9.420;2023-11-21T07:04:36;11.75;;;3.20;;
48791;SDS011;34587;48.816;9.420;2023-11-21T07:07:04;6.03;;;3.38;;
48791;SDS011;34587;48.816;9.420;2023-11-21T07:09:31;5.45;;;2.25;;
48791;SDS011;34587;48.816;9.420;2023-11-21T07:11:57;1.42;;;1.25;;
48791;SDS011;34587;48.816;9.420;2023-11-21T07:14:22;2.67;;;1.33;;
48791;SDS011;34587;48.816;9.420;2023-11-21T07:16:47;3.45;;;1.70;;
48791;SDS011;34587;48.816;9.420;2023-11-21T07:19:13;7.45;;;2.05;;
48791;SDS011;34587;48.816;9.420;2023-11-21T07:21:39;4.70;;;2.17;;
48791;SDS011;34587;48.816;9.420;2023-11-21T07:24:05;3.53;;;1.73;;
48791;SDS011;34587;48.816;9.420;2023-11-21T07:26:33;1.50;;;1.40;;
48791;SDS011;34587;48.816;9.420;2023-11-21T07:28:59;2.05;;;1.95;;
48791;SDS011;34587;48.816;9.420;2023-11-21T07:31:25;5.50;;;2.58;;
48791;SDS011;34587;48.816;9.420;2023-11-21T07:33:51;1.77;;;1.50;;
48791;SDS011;34587;48.816;9.420;2023-11-21T07:36:17;6.75;;;1.90;;
48791;SDS011;34587;48.816;9.420;2023-11-21T07:38:46;2.90;;;1.77;;
48791;SDS011;34587;48.816;9.420;2023-11-21T07:41:12;2.42;;;1.90;;
48791;SDS011;34587;48.816;9.420;2023-11-21T07:43:40;5.22;;;2.00;;
48791;SDS011;34587;48.816;9.420;2023-11-21T07:46:05;6.10;;;2.13;;
48791;SDS011;34587;48.816;9.420;2023-11-21T07:48:31;4.80;;;2.22;;
48791;SDS011;34587;48.816;9.420;2023-11-21T07:50:57;9.23;;;2.75;;
48791;SDS011;34587;48.816;9.420;2023-11-21T07:53:26;5.85;;;2.85;;
48791;SDS011;34587;48.816;9.420;2023-11-21T07:55:53;4.32;;;1.65;;
48791;SDS011;34587;48.816;9.420;2023-11-21T07:58:19;1.40;;;1.30;;
48791;SDS011;34587;48.816;9.420;2023-11-21T08:00:44;15.30;;;3.85;;
48791;SDS011;34587;48.816;9.420;2023-11-21T08:03:09;6.03;;;1.45;;
48791;SDS011;34587;48.816;9.420;2023-11-21T08:05:36;0.88;;;0.88;;
48791;SDS011;34587;48.816;9.420;2023-11-21T08:08:01;3.55;;;1.30;;
48791;SDS011;34587;48.816;9.420;2023-11-21T08:10:27;3.00;;;1.13;;
48791;SDS011;34587;48.816;9.420;2023-11-21T08:12:52;6.82;;;1.92;;
48791;SDS011;34587;48.816;9.420;2023-11-21T08:15:18;4.15;;;1.25;;
48791;SDS011;34587;48.816;9.420;2023-11-21T08:17:44;2.30;;;1.42;;
48791;SDS011;34587;48.816;9.420;2023-11-21T08:20:09;10.25;;;2.50;;
48791;SDS011;34587;48.816;9.420;2023-11-21T08:22:36;12.63;;;5.63;;
48791;SDS011;34587;48.816;9.420;2023-11-21T08:25:01;7.13;;;1.60;;
48791;SDS011;34587;48.816;9.420;2023-11-21T08:27:29;2.88;;;1.67;;
48791;SDS011;34587;48.816;9.420;2023-11-21T08:29:54;2.38;;;1.70;;
48791;SDS011;34587;48.816;9.420;2023-11-21T08:32:19;2.65;;;1.00;;
48791;SDS011;34587;48.816;9.420;2023-11-21T08:34:45;4.22;;;1.38;;
48791;SDS011;34587;48.816;9.420;2023-11-21T08:37:10;4.10;;;2.97;;
48791;SDS011;34587;48.816;9.420;2023-11-21T08:39:36;3.80;;;1.83;;
48791;SDS011;34587;48.816;9.420;2023-11-21T08:42:02;2.03;;;1.50;;
48791;SDS011;34587;48.816;9.420;2023-11-21T08:44:28;2.70;;;1.65;;
48791;SDS011;34587;48.816;9.420;2023-11-21T08:46:55;5.82;;;2.33;;
48791;SDS011;34587;48.816;9.420;2023-11-21T08:49:20;3.22;;;1.60;;
48791;SDS011;34587;48.816;9.420;2023-11-21T08:51:45;8.85;;;4.22;;
48791;SDS011;34587;48.816;9.420;2023-11-21T08:54:11;4.72;;;1.10;;
48791;SDS011;34587;48.816;9.420;2023-11-21T08:56:36;3.95;;;1.10;;
48791;SDS011;34587;48.816;9.420;2023-11-21T08:59:02;1.52;;;1.10;;
48791;SDS011;34587;48.816;9.420;2023-11-21T09:01:28;3.72;;;2.10;;
48791;SDS011;34587;48.816;9.420;2023-11-21T09:03:56;4.05;;;1.20;;
48791;SDS011;34587;48.816;9.420;2023-11-21T09:06:22;3.08;;;1.50;;
48791;SDS011;34587;48.816;9.420;2023-11-21T09:08:48;2.70;;;1.00;;
48791;SDS011;34587;48.816;9.420;2023-11-21T09:11:13;1.15;;;0.82;;
48791;SDS011;34587;48.816;9.420;2023-11-21T09:13:38;0.77;;;0.77;;
48791;SDS011;34587;48.816;9.420;2023-11-21T09:16:04;5.32;;;1.77;;
48791;SDS011;34587;48.816;9.420;2023-11-21T09:18:30;1.33;;;0.95;;
48791;SDS011;34587;48.816;9.420;2023-11-21T09:20:56;1.80;;;1.02;;
48791;SDS011;34587;48.816;9.420;2023-11-21T09:23:21;2.53;;;0.80;;
48791;SDS011;34587;48.816;9.420;2023-11-21T09:25:46;0.88;;;0.88;;
48791;SDS011;34587;48.816;9.420;2023-11-21T09:28:14;2.30;;;1.15;;
48791;SDS011;34587;48.816;9.420;2023-11-21T09:30:40;2.00;;;1.08;;
48791;SDS011;34587;48.816;9.420;2023-11-21T09:33:05;1.30;;;1.00;;
48791;SDS011;34587;48.816;9.420;2023-11-21T09:35:31;2.42;;;1.00;;
48791;SDS011;34587;48.816;9.420;2023-11-21T09:37:57;1.35;;;0.93;;
48791;SDS011;34587;48.816;9.420;2023-11-21T09:40:22;1.15;;;0.90;;
48791;SDS011;34587;48.816;9.420;2023-11-21T09:42:54;5.18;;;1.08;;
48791;SDS011;34587;48.816;9.420;2023-11-21T09:45:25;0.82;;;0.77;;
48791;SDS011;34587;48.816;9.420;2023-11-21T09:47:56;1.42;;;0.80;;
48791;SDS011;34587;48.816;9.420;2023-11-21T09:50:22;0.90;;;0.83;;
48791;SDS011;34587;48.816;9.420;2023-11-21T09:52:55;2.20;;;0.90;;
48791;SDS011;34587;48.816;9.420;2023-11-21T09:55:34;1.50;;;0.80;;
48791;SDS011;34587;48.816;9.420;2023-11-21T09:58:03;1.98;;;1.10;;
48791;SDS011;34587;48.816;9.420;2023-11-21T10:00:32;10.05;;;5.00;;
48791;SDS011;34587;48.816;9.420;2023-11-21T10:02:58;2.35;;;1.55;;
48791;SDS011;34587;48.816;9.420;2023-11-21T10:05:23;1.33;;;1.00;;
48791;SDS011;34587;48.816;9.420;2023-11-21T10:07:52;1.67;;;0.98;;
48791;SDS011;34587;48.816;9.420;2023-11-21T10:10:20;1.17;;;0.77;;
48791;SDS011;34587;48.816;9.420;2023-11-21T10:12:48;1.95;;;0.70;;
48791;SDS011;34587;48.816;9.420;2023-11-21T10:15:18;0.80;;;0.68;;
48791;SDS011;34587;48.816;9.420;2023-11-21T10:17:46;2.35;;;0.65;;
48791;SDS011;34587;48.816;9.420;2023-11-21T10:20:14;1.40;;;0.70;;
48791;SDS011;34587;48.816;9.420;2023-11-21T10:22:40;2.38;;;0.47;;
48791;SDS011;34587;48.816;9.420;2023-11-21T10:25:09;0.40;;;0.40;;
48791;SDS011;34587;48.816;9.420;2023-11-21T10:27:36;1.33;;;1.00;;
48791;SDS011;34587;48.816;9.420;2023-11-21T10:30:04;0.88;;;0.70;;
48791;SDS011;34587;48.816;9.420;2023-11-21T10:32:39;3.15;;;2.42;;
48791;SDS011;34587;48.816;9.420;2023-11-21T10:35:05;1.63;;;0.90;;
48791;SDS011;34587;48.816;9.420;2023-11-21T10:37:34;1.17;;;0.68;;
48791;SDS011;34587;48.816;9.420;2023-11-21T10:40:01;0.85;;;0.75;;
48791;SDS011;34587;48.816;9.420;2023-11-21T10:42:27;0.50;;;0.50;;
48791;SDS011;34587;48.816;9.420;2023-11-21T10:44:52;0.70;;;0.63;;
48791;SDS011;34587;48.816;9.420;2023-11-21T10:47:18;0.70;;;0.70;;
48791;SDS011;34587;48.816;9.420;2023-11-21T10:49:44;0.82;;;0.80;;
48791;SDS011;34587;48.816;9.420;2023-11-21T10:52:12;1.95;;;1.00;;
48791;SDS011;34587;48.816;9.420;2023-11-21T10:54:45;6.43;;;1.67;;
48791;SDS011;34587;48.816;9.420;2023-11-21T10:57:11;16.05;;;6.40;;
48791;SDS011;34587;48.816;9.420;2023-11-21T10:59:41;11.05;;;6.57;;
48791;SDS011;34587;48.816;9.420;2023-11-21T11:02:17;1.57;;;1.20;;
48791;SDS011;34587;48.816;9.420;2023-11-21T11:04:48;2.45;;;1.10;;
48791;SDS011;34587;48.816;9.420;2023-11-21T11:07:13;1.25;;;1.15;;
48791;SDS011;34587;48.816;9.420;2023-11-21T11:09:41;2.75;;;1.50;;
48791;SDS011;34587;48.816;9.420;2023-11-21T11:12:06;1.27;;;1.10;;
48791;SDS011;34587;48.816;9.420;2023-11-21T11:14:34;7.57;;;2.28;;
48791;SDS011;34587;48.816;9.420;2023-11-21T11:17:01;4.95;;;2.70;;
48791;SDS011;34587;48.816;9.420;2023-11-21T11:19:28;2.45;;;1.30;;
48791;SDS011;34587;48.816;9.420;2023-11-21T11:27:52;43.95;;;13.43;;
48791;SDS011;34587;48.816;9.420;2023-11-21T11:33:39;1.73;;;0.95;;
48791;SDS011;34587;48.816;9.420;2023-11-21T11:38:46;1.00;;;0.90;;
48791;SDS011;34587;48.816;9.420;2023-11-21T11:41:15;0.70;;;0.68;;
48791;SDS011;34587;48.816;9.420;2023-11-21T11:43:49;0.65;;;0.65;;
48791;SDS011;34587;48.816;9.420;2023-11-21T11:46:15;0.85;;;0.60;;
48791;SDS011;34587;48.816;9.420;2023-11-21T11:48:40;0.73;;;0.73;;
48791;SDS011;34587;48.816;9.420;2023-11-21T11:51:15;0.60;;;0.60;;
48791;SDS011;34587;48.816;9.420;2023-11-21T11:53:43;0.40;;;0.40;;
48791;SDS011;34587;48.816;9.420;2023-11-21T11:56:29;1.85;;;0.70;;
48791;SDS011;34587;48.816;9.420;2023-11-21T11:58:59;0.60;;;0.60;;
48791;SDS011;34587;48.816;9.420;2023-11-21T12:01:28;0.90;;;0.90;;
48791;SDS011;34587;48.816;9.420;2023-11-21T12:06:39;4.40;;;2.65;;
48791;SDS011;34587;48.816;9.420;2023-11-21T12:09:06;0.95;;;0.95;;
48791;SDS011;34587;48.816;9.420;2023-11-21T12:11:31;0.82;;;0.82;;
48791;SDS011;34587;48.816;9.420;2023-11-21T12:13:57;1.00;;;0.93;;
48791;SDS011;34587;48.816;9.420;2023-11-21T12:16:24;0.90;;;0.90;;
48791;SDS011;34587;48.816;9.420;2023-11-21T12:18:52;6.18;;;1.00;;
48791;SDS011;34587;48.816;9.420;2023-11-21T12:21:18;2.60;;;1.00;;
48791;SDS011;34587;48.816;9.420;2023-11-21T12:23:44;1.95;;;0.90;;
48791;SDS011;34587;48.816;9.420;2023-11-21T12:26:11;1.00;;;0.85;;
48791;SDS011;34587;48.816;9.420;2023-11-21T12:28:37;1.20;;;1.10;;
48791;SDS011;34587;48.816;9.420;2023-11-21T12:31:03;4.63;;;2.67;;
48791;SDS011;34587;48.816;9.420;2023-11-21T12:33:29;2.15;;;1.58;;
48791;SDS011;34587;48.816;9.420;2023-11-21T12:35:55;1.00;;;1.00;;
48791;SDS011;34587;48.816;9.420;2023-11-21T12:38:22;1.63;;;0.95;;
48791;SDS011;34587;48.816;9.420;2023-11-21T12:40:49;1.83;;;1.20;;
48791;SDS011;34587;48.816;9.420;2023-11-21T12:43:15;1.13;;;1.13;;
48791;SDS011;34587;48.816;9.420;2023-11-21T12:45:43;1.27;;;1.10;;
48791;SDS011;34587;48.816;9.420;2023-11-21T12:48:08;1.00;;;0.90;;
48791;SDS011;34587;48.816;9.420;2023-11-21T12:50:36;2.45;;;1.00;;
48791;SDS011;34587;48.816;9.420;2023-11-21T12:55:33;0.80;;;0.75;;
48791;SDS011;34587;48.816;9.420;2023-11-21T12:58:02;0.88;;;0.68;;
48791;SDS011;34587;48.816;9.420;2023-11-21T13:00:37;0.57;;;0.57;;
48791;SDS011;34587;48.816;9.420;2023-11-21T13:03:05;0.88;;;0.88;;
48791;SDS011;34587;48.816;9.420;2023-11-21T13:05:33;1.02;;;0.80;;
48791;SDS011;34587;48.816;9.420;2023-11-21T13:08:01;3.72;;;2.15;;
48791;SDS011;34587;48.816;9.420;2023-11-21T13:10:29;1.75;;;1.17;;
48791;SDS011;34587;48.816;9.420;2023-11-21T13:12:59;1.30;;;0.52;;
48791;SDS011;34587;48.816;9.420;2023-11-21T13:15:25;0.95;;;0.82;;
48791;SDS011;34587;48.816;9.420;2023-11-21T13:17:56;0.50;;;0.50;;
48791;SDS011;34587;48.816;9.420;2023-11-21T13:20:22;1.10;;;1.10;;
48791;SDS011;34587;48.816;9.420;2023-11-21T13:22:49;1.08;;;1.00;;
48791;SDS011;34587;48.816;9.420;2023-11-21T13:25:29;0.70;;;0.70;;
48791;SDS011;34587;48.816;9.420;2023-11-21T13:27:58;1.63;;;1.30;;
48791;SDS011;34587;48.816;9.420;2023-11-21T13:30:26;0.65;;;0.65;;
48791;SDS011;34587;48.816;9.420;2023-11-21T13:32:58;0.68;;;0.68;;
48791;SDS011;34587;48.816;9.420;2023-11-21T13:35:30;3.25;;;1.77;;
48791;SDS011;34587;48.816;9.420;2023-11-21T13:37:57;4.03;;;1.15;;
48791;SDS011;34587;48.816;9.420;2023-11-21T13:40:30;10.13;;;3.50;;
48791;SDS011;34587;48.816;9.420;2023-11-21T13:42:56;3.70;;;1.98;;
48791;SDS011;34587;48.816;9.420;2023-11-21T13:45:24;2.47;;;1.75;;
48791;SDS011;34587;48.816;9.420;2023-11-21T13:47:52;1.50;;;1.33;;
48791;SDS011;34587;48.816;9.420;2023-11-21T13:50:24;2.55;;;2.00;;
48791;SDS011;34587;48.816;9.420;2023-11-21T13:52:55;1.63;;;1.20;;
48791;SDS011;34587;48.816;9.420;2023-11-21T13:55:20;1.10;;;1.00;;
48791;SDS011;34587;48.816;9.420;2023-11-21T13:57:49;1.13;;;1.10;;
48791;SDS011;34587;48.816;9.420;2023-11-21T14:00:17;2.95;;;1.23;;
48791;SDS011;34587;48.816;9.420;2023-11-21T14:03:01;0.80;;;0.80;;
48791;SDS011;34587;48.816;9.420;2023-11-21T14:05:29;1.02;;;0.80;;
48791;SDS011;34587;48.816;9.420;2023-11-21T14:07:56;36.20;;;14.35;;
48791;SDS011;34587;48.816;9.420;2023-11-21T14:10:28;5.47;;;1.63;;
48791;SDS011;34587;48.816;9.420;2023-11-21T14:13:01;1.25;;;1.00;;
48791;SDS011;34587;48.816;9.420;2023-11-21T14:15:28;2.08;;;1.00;;
48791;SDS011;34587;48.816;9.420;2023-11-21T14:17:54;0.90;;;0.90;;
48791;SDS011;34587;48.816;9.420;2023-11-21T14:20:19;1.23;;;1.10;;
48791;SDS011;34587;48.816;9.420;2023-11-21T14:22:46;0.80;;;0.80;;
48791;SDS011;34587;48.816;9.420;2023-11-21T14:25:11;2.13;;;0.85;;
48791;SDS011;34587;48.816;9.420;2023-11-21T14:27:37;0.88;;;0.88;;
48791;SDS011;34587;48.816;9.420;2023-11-21T14:30:02;1.08;;;0.98;;
48791;SDS011;34587;48.816;9.420;2023-11-21T14:32:28;1.10;;;1.05;;
48791;SDS011;34587;48.816;9.420;2023-11-21T14:34:53;5.18;;;0.98;;
48791;SDS011;34587;48.816;9.420;2023-11-21T14:37:19;1.48;;;0.73;;
48791;SDS011;34587;48.816;9.420;2023-11-21T14:39:44;0.88;;;0.70;;
48791;SDS011;34587;48.816;9.420;2023-11-21T14:42:13;0.82;;;0.65;;
48791;SDS011;34587;48.816;9.420;2023-11-21T14:44:40;1.05;;;0.80;;
48791;SDS011;34587;48.816;9.420;2023-11-21T14:47:06;1.08;;;1.00;;
48791;SDS011;34587;48.816;9.420;2023-11-21T14:49:40;2.60;;;0.73;;
48791;SDS011;34587;48.816;9.420;2023-11-21T14:52:20;2.15;;;0.95;;
48791;SDS011;34587;48.816;9.420;2023-11-21T14:54:59;0.80;;;0.80;;
48791;SDS011;34587;48.816;9.420;2023-11-21T14:57:43;0.65;;;0.65;;
48791;SDS011;34587;48.816;9.420;2023-11-21T15:00:14;0.75;;;0.75;;
48791;SDS011;34587;48.816;9.420;2023-11-21T15:03:01;0.95;;;0.88;;
48791;SDS011;34587;48.816;9.420;2023-11-21T15:05:28;3.20;;;1.25;;
48791;SDS011;34587;48.816;9.420;2023-11-21T15:07:54;1.63;;;0.75;;
48791;SDS011;34587;48.816;9.420;2023-11-21T15:10:22;1.10;;;1.00;;
48791;SDS011;34587;48.816;9.420;2023-11-21T15:13:03;1.88;;;1.35;;
48791;SDS011;34587;48.816;9.420;2023-11-21T15:15:28;2.08;;;1.20;;
48791;SDS011;34587;48.816;9.420;2023-11-21T15:17:55;1.30;;;1.20;;
48791;SDS011;34587;48.816;9.420;2023-11-21T15:20:20;4.43;;;3.22;;
48791;SDS011;34587;48.816;9.420;2023-11-21T15:22:47;2.90;;;2.67;;
48791;SDS011;34587;48.816;9.420;2023-11-21T15:25:12;2.10;;;1.65;;
48791;SDS011;34587;48.816;9.420;2023-11-21T15:27:38;7.47;;;2.15;;
48791;SDS011;34587;48.816;9.420;2023-11-21T15:30:04;1.80;;;1.63;;
48791;SDS011;34587;48.816;9.420;2023-11-21T15:32:30;3.13;;;1.73;;
48791;SDS011;34587;48.816;9.420;2023-11-21T15:34:56;1.88;;;1.60;;
48791;SDS011;34587;48.816;9.420;2023-11-21T15:37:21;8.60;;;1.40;;
48791;SDS011;34587;48.816;9.420;2023-11-21T15:39:46;2.53;;;1.50;;
48791;SDS011;34587;48.816;9.420;2023-11-21T15:42:12;3.03;;;1.60;;
48791;SDS011;34587;48.816;9.420;2023-11-21T15:44:37;2.05;;;1.73;;
48791;SDS011;34587;48.816;9.420;2023-11-21T15:47:03;2.00;;;1.80;;
48791;SDS011;34587;48.816;9.420;2023-11-21T15:49:30;2.63;;;1.80;;
48791;SDS011;34587;48.816;9.420;2023-11-21T15:51:59;2.17;;;1.80;;
48791;SDS011;34587;48.816;9.420;2023-11-21T15:54:25;3.30;;;2.15;;
48791;SDS011;34587;48.816;9.420;2023-11-21T15:56:51;2.20;;;2.00;;
48791;SDS011;34587;48.816;9.420;2023-11-21T15:59:20;3.40;;;2.20;;
48791;SDS011;34587;48.816;9.420;2023-11-21T16:01:49;3.08;;;2.38;;
48791;SDS011;34587;48.816;9.420;2023-11-21T16:04:14;6.80;;;2.30;;
48791;SDS011;34587;48.816;9.420;2023-11-21T16:06:41;5.35;;;3.47;;
48791;SDS011;34587;48.816;9.420;2023-11-21T16:09:07;7.03;;;3.80;;
48791;SDS011;34587;48.816;9.420;2023-11-21T16:11:45;7.35;;;3.90;;
48791;SDS011;34587;48.816;9.420;2023-11-21T16:14:10;5.18;;;3.33;;
48791;SDS011;34587;48.816;9.420;2023-11-21T16:16:36;5.15;;;3.20;;
48791;SDS011;34587;48.816;9.420;2023-11-21T16:19:02;16.83;;;4.15;;
48791;SDS011;34587;48.816;9.420;2023-11-21T16:21:27;14.30;;;7.00;;
48791;SDS011;34587;48.816;9.420;2023-11-21T16:23:52;15.63;;;7.72;;
48791;SDS011;34587;48.816;9.420;2023-11-21T16:26:18;19.77;;;10.20;;
48791;SDS011;34587;48.816;9.420;2023-11-21T16:28:44;20.15;;;8.10;;
48791;SDS011;34587;48.816;9.420;2023-11-21T16:31:09;24.00;;;10.68;;
48791;SDS011;34587;48.816;9.420;2023-11-21T16:33:35;24.52;;;10.55;;
48791;SDS011;34587;48.816;9.420;2023-11-21T16:36:01;19.38;;;9.48;;
48791;SDS011;34587;48.816;9.420;2023-11-21T16:38:26;24.02;;;8.63;;
48791;SDS011;34587;48.816;9.420;2023-11-21T16:40:51;23.50;;;10.35;;
48791;SDS011;34587;48.816;9.420;2023-11-21T16:43:17;20.25;;;10.85;;
48791;SDS011;34587;48.816;9.420;2023-11-21T16:45:42;22.30;;;11.68;;
48791;SDS011;34587;48.816;9.420;2023-11-21T16:48:13;22.05;;;10.77;;
48791;SDS011;34587;48.816;9.420;2023-11-21T16:50:42;77.90;;;23.77;;
48791;SDS011;34587;48.816;9.420;2023-11-21T16:53:08;127.28;;;35.58;;
48791;SDS011;34587;48.816;9.420;2023-11-21T16:55:34;104.95;;;36.75;;
48791;SDS011;34587;48.816;9.420;2023-11-21T16:57:59;54.03;;;19.17;;
48791;SDS011;34587;48.816;9.420;2023-11-21T17:00:25;22.48;;;8.93;;
48791;SDS011;34587;48.816;9.420;2023-11-21T17:02:51;9.32;;;4.60;;
48791;SDS011;34587;48.816;9.420;2023-11-21T17:05:17;7.03;;;4.57;;
48791;SDS011;34587;48.816;9.420;2023-11-21T17:07:44;7.78;;;4.97;;
48791;SDS011;34587;48.816;9.420;2023-11-21T17:10:10;8.40;;;5.05;;
48791;SDS011;34587;48.816;9.420;2023-11-21T17:12:37;9.30;;;6.25;;
48791;SDS011;34587;48.816;9.420;2023-11-21T17:15:02;9.63;;;5.07;;
48791;SDS011;34587;48.816;9.420;2023-11-21T17:17:28;7.57;;;4.05;;
48791;SDS011;34587;48.816;9.420;2023-11-21T17:19:53;8.20;;;4.20;;
48791;SDS011;34587;48.816;9.420;2023-11-21T17:22:19;12.35;;;5.28;;
48791;SDS011;34587;48.816;9.420;2023-11-21T17:24:44;7.75;;;4.60;;
48791;SDS011;34587;48.816;9.420;2023-11-21T17:27:10;5.43;;;4.25;;
48791;SDS011;34587;48.816;9.420;2023-11-21T17:32:01;6.55;;;4.50;;
48791;SDS011;34587;48.816;9.420;2023-11-21T17:34:27;6.18;;;4.22;;
48791;SDS011;34587;48.816;9.420;2023-11-21T17:36:52;8.07;;;5.22;;
48791;SDS011;34587;48.816;9.420;2023-11-21T17:39:20;5.80;;;4.50;;
48791;SDS011;34587;48.816;9.420;2023-11-21T17:41:45;7.43;;;4.30;;
48791;SDS011;34587;48.816;9.420;2023-11-21T17:44:11;5.25;;;4.55;;
48791;SDS011;34587;48.816;9.420;2023-11-21T17:46:37;7.80;;;4.90;;
48791;SDS011;34587;48.816;9.420;2023-11-21T17:49:03;5.55;;;4.63;;
48791;SDS011;34587;48.816;9.420;2023-11-21T17:51:28;8.05;;;5.45;;
48791;SDS011;34587;48.816;9.420;2023-11-21T17:53:55;8.15;;;5.55;;
48791;SDS011;34587;48.816;9.420;2023-11-21T17:56:26;7.22;;;4.72;;
48791;SDS011;34587;48.816;9.420;2023-11-21T17:58:52;7.18;;;4.47;;
48791;SDS011;34587;48.816;9.420;2023-11-21T18:01:19;5.68;;;4.20;;
48791;SDS011;34587;48.816;9.420;2023-11-21T18:03:45;8.05;;;4.95;;
48791;SDS011;34587;48.816;9.420;2023-11-21T18:06:11;8.88;;;5.65;;
48791;SDS011;34587;48.816;9.420;2023-11-21T18:08:38;8.73;;;5.90;;
48791;SDS011;34587;48.816;9.420;2023-11-21T18:11:05;13.18;;;7.22;;
48791;SDS011;34587;48.816;9.420;2023-11-21T18:13:30;10.35;;;6.15;;
48791;SDS011;34587;48.816;9.420;2023-11-21T18:15:56;9.93;;;6.03;;
48791;SDS011;34587;48.816;9.420;2023-11-21T18:18:21;14.57;;;6.38;;
48791;SDS011;34587;48.816;9.420;2023-11-21T18:20:46;9.50;;;6.15;;
48791;SDS011;34587;48.816;9.420;2023-11-21T18:23:11;11.23;;;6.50;;
48791;SDS011;34587;48.816;9.420;2023-11-21T18:25:37;10.90;;;6.32;;
48791;SDS011;34587;48.816;9.420;2023-11-21T18:28:03;11.27;;;6.18;;
48791;SDS011;34587;48.816;9.420;2023-11-21T18:30:29;12.95;;;5.43;;
48791;SDS011;34587;48.816;9.420;2023-11-21T18:32:54;7.65;;;4.88;;
48791;SDS011;34587;48.816;9.420;2023-11-21T18:35:19;8.68;;;5.10;;
48791;SDS011;34587;48.816;9.420;2023-11-21T18:37:45;21.15;;;10.07;;
48791;SDS011;34587;48.816;9.420;2023-11-21T18:40:11;7.75;;;5.13;;
48791;SDS011;34587;48.816;9.420;2023-11-21T18:42:37;6.80;;;5.28;;
48791;SDS011;34587;48.816;9.420;2023-11-21T18:45:04;10.45;;;4.90;;
48791;SDS011;34587;48.816;9.420;2023-11-21T18:47:29;12.18;;;7.05;;
48791;SDS011;34587;48.816;9.420;2023-11-21T18:49:55;15.68;;;7.05;;
48791;SDS011;34587;48.816;9.420;2023-11-21T18:52:20;15.27;;;7.90;;
48791;SDS011;34587;48.816;9.420;2023-11-21T18:54:46;7.20;;;5.13;;
48791;SDS011;34587;48.816;9.420;2023-11-21T18:57:13;9.30;;;5.55;;
48791;SDS011;34587;48.816;9.420;2023-11-21T18:59:38;9.00;;;5.80;;
48791;SDS011;34587;48.816;9.420;2023-11-21T19:02:06;10.85;;;6.05;;
48791;SDS011;34587;48.816;9.420;2023-11-21T19:04:37;17.17;;;6.72;;
48791;SDS011;34587;48.816;9.420;2023-11-21T19:07:02;9.80;;;6.10;;
48791;SDS011;34587;48.816;9.420;2023-11-21T19:09:30;9.77;;;5.68;;
48791;SDS011;34587;48.816;9.420;2023-11-21T19:11:56;11.13;;;6.78;;
48791;SDS011;34587;48.816;9.420;2023-11-21T19:14:21;14.45;;;6.07;;
48791;SDS011;34587;48.816;9.420;2023-11-21T19:16:47;10.52;;;6.35;;
48791;SDS011;34587;48.816;9.420;2023-11-21T19:19:13;11.15;;;7.03;;
48791;SDS011;34587;48.816;9.420;2023-11-21T19:21:39;12.02;;;6.72;;